AirNav   Everest Fuels
 
 1185 users online  

I19 Greene County-Lewis A Jackson Regional Airport
Dayton, Ohio, USA

GOING TO DAYTON?


FAA INFORMATION EFFECTIVE 10 SEPTEMBER 2020

Location

FAA Identifier: I19
Lat/Long: 39-41-26.6000N 083-59-34.0000W
39-41.443333N 083-59.566667W
39.6907222,-83.9927778
(estimated)
Elevation: 948.5 ft. / 289.1 m (surveyed)
Variation: 05W (1995)
From city: 10 miles E of DAYTON, OH
Time zone: UTC -4 (UTC -5 during Standard Time)
Zip code: 45385

Airport Operations

Airport use: Open to the public
Activation date: 10/1968
Control tower: no
ARTCC: INDIANAPOLIS CENTER
FSS: DAYTON FLIGHT SERVICE STATION
NOTAMs facility: DAY (NOTAM-D service available)
Attendance: NOV-MAR 0800-1800, APR-OCT 0800-2000
UNATNDD THANKSGIVING, CHRISTMAS, & NEW YEARS DAY.
Wind indicator: lighted
Segmented circle: no
Lights: ACTVT REIL RWY 07 & 25; LIRL RWY 07/25 - CTAF.
Beacon: white-green (lighted land airport)
Operates sunset to sunrise.

Airport Communications

CTAF/UNICOM: 122.7
WX AWOS-3: 118.525 (937-372-4668)
COLUMBUS APPROACH: 118.85
COLUMBUS DEPARTURE: 118.85
CLASS C: 118.85
IC: 118.85
WX AWOS-3PT at SGH (11 nm NE): 134.975 (937-324-4532)
WX ASOS at MGY (12 nm SW): 118.375 (937-885-2171)
WX AWOS-3 at I66 (13 nm SE): 124.175 (937-382-1376)
WX ASOS at DAY (16 nm NW): PHONE 937-415-6819
WX AWOS-3 at I68 (18 nm SW): 120.55 (513-934-5500)
WX ASOS at ILN (18 nm SE): PHONE 937-383-7334

Nearby radio navigation aids

VOR radial/distance  VOR name  Freq  Var
MXQr335/18.0MIDWEST VOR/DME112.9004W
DQNr137/27.0DAYTON VOR/DME114.5001W
RODr181/35.9ROSEWOOD VORTAC117.5005W

 
NDB name  Hdg/Dist  Freq  Var  ID
CLARK COUNTY226/14.734104WCCJ -.-. -.-. .---
HOOK FIELD065/24.023904WHKF .... -.- ..-.
COURT HOUSE287/28.341406WCSS -.-. ... ...
SPORTYS020/38.324504WPWF .--. .-- ..-.

Airport Services

Fuel available: 100LL JET-A+
FUEL AVBL H24 WITH CREDIT CARD CTC FBO AT 937-347-1302.
Parking: hangars and tiedowns
Airframe service: MAJOR
Powerplant service: MAJOR
Bulk oxygen: HIGH

Runway Information

Runway 7/25

Dimensions: 5004 x 75 ft. / 1525 x 23 m
Surface: asphalt, in excellent condition
Weight bearing capacity: 
Single wheel: 30.0
Runway edge lights: low intensity
RUNWAY 7  RUNWAY 25
Latitude: 39-41.256342N39-41.629478N
Longitude: 084-00.042808W083-59.091673W
Elevation: 909.5 ft.948.5 ft.
Traffic pattern: leftleft
Runway heading: 068 magnetic, 063 true248 magnetic, 243 true
Markings: nonprecision, in good conditionnonprecision, in good condition
Visual slope indicator: 2-light PAPI on left (3.50 degrees glide path)2-light PAPI on left (3.50 degrees glide path)
UNUSBL BYD 6 DEGS L OF CNTRLN.
Runway end identifier lights: yesyes
Touchdown point: yes, no lightsyes, no lights
Obstructions: 16 ft. trees, 565 ft. from runway, 100 ft. right of centerline, 22:1 slope to clearnone
+10 FT TREES AND BRUSH, 0-199 FT FM RWY END, 195-250 FT R OF CNTRLN.

Airport Ownership and Management from official FAA records

Ownership: Publicly-owned
Owner: GREENE COUNTY RGNL ARPT AUTH
140 N VALLEY RD
XENIA, OH 45385-9301
Phone 937-376-8107
Manager: DAVE KUSHNER
140 N VALLEY RD
XENIA, OH 45385-9301
Phone 937-376-8107

Airport Operational Statistics

Aircraft based on the field: 75
Single engine airplanes: 65
Multi engine airplanes: 9
Helicopters: 1
    
Aircraft operations: avg 117/day *
91% local general aviation
9% transient general aviation
* for 12-month period ending 22 September 2018

Additional Remarks

BIRDS & DEER ON & INVOF ARPT.
FOR CD CTC COLUMBUS APCH AT 614-338-8537.
EXTSV FLT TRG ACT.

Instrument Procedures

NOTE: All procedures below are presented as PDF files. If you need a reader for these files, you should download the free Adobe Reader.

NOT FOR NAVIGATION. Please procure official charts for flight.
FAA instrument procedures published for use from 10 September 2020 at 0901Z to 08 October 2020 at 0900z.

 
IAPs - Instrument Approach Procedures
RNAV (GPS) RWY 07   download (263KB)
RNAV (GPS) RWY 25   download (267KB)
NOTE: Special Take-Off Minimums/Departure Procedures apply   download (232KB)

Other nearby airports with instrument procedures:

KFFO - Wright-Patterson Air Force Base (8 nm N)
KSGH - Springfield-Beckley Municipal Airport (11 nm NE)
KMGY - Dayton-Wright Brothers Airport (12 nm SW)
I66 - Clinton Field Airport (13 nm SE)
KDAY - James M Cox Dayton International Airport (16 nm NW)
I68 - Warren County Airport/John Lane Field (18 nm SW)
KILN - Wilmington Air Park (18 nm SE)
 
Loc | Ops | Rwys | IFR | FBO | Links
Com | Nav | Svcs | Stats | Notes
Area around I19 (Greene County-Lewis A Jackson Regional Airport)
 
Road maps at: MapQuest Bing Google
 
Aerial photo
WARNING: Photo may not be current or correct
Aerial photo of I19 (Greene County-Lewis A Jackson Regional Airport)
Photo by Anthony Springer
Photo taken 13-Jun-2018
looking northeast.

Do you have a better or more recent aerial photo of Greene County-Lewis A Jackson Regional Airport that you would like to share? If so, please send us your photo.

 
Sectional chart

 
Airport distance calculator
Flying to Greene County-Lewis A Jackson Regional Airport? Find the distance to fly.

From to I19

Sunrise and sunset
Times for 21-Sep-2020
 Local
(UTC-4)
 Zulu
(UTC)
Morning civil twilight06:5810:58
Sunrise07:2511:25
Sunset19:3323:33
Evening civil twilight20:0024:00

Current date and time
Zulu (UTC)  22-Sep-2020 01:30:35
Local (UTC-4)  21-Sep-2020 21:30:35
 
METAR
KFFO 
8nm N 
220056Z AUTO 13004KT 10SM CLR 16/03 A3032 RMK AO2 SLP271 T01550033
KSGH 
11nm NE 
220056Z AUTO 11004KT 10SM CLR 10/06 A3034 RMK AO2 SLP278 T01000056
KMGY 
12nm SW 
220053Z AUTO 13006KT 10SM CLR 16/06 A3032 RMK AO2 SLP266 T01610056
KDAY 
16nm NW 
220056Z 12006KT 10SM CLR 15/03 A3033 RMK AO2 SLP271 T01500033
KILN 
18nm SE 
220054Z AUTO 14005KT 10SM CLR 13/06 A3034 RMK AO2 SLP282 T01330061
KI68 
18nm SW 
220115Z AUTO 13004KT 10SM CLR 15/07 A3033 RMK AO1 T01520068
TAF
KFFO 
8nm N 
211901Z 2119/2301 14006KT 9999 FEW270 QNH3010INS WND 25006KT AFT 2215 TX23/2120Z TN06/2211Z
KDAY 
16nm NW 
211730Z 2118/2218 14006KT P6SM SKC FM212200 12003KT P6SM SKC FM220600 VRB03KT P6SM SCT250
KILN 
18nm SE 
211730Z 2118/2218 13005KT P6SM SKC FM212200 12003KT P6SM SKC FM220600 VRB03KT P6SM SCT250
NOTAMs
Click for the latest NOTAMs
NOTAMs are issued by the DoD/FAA and will open in a separate window not controlled by AirNav.

 

 
 

FBO, Fuel Providers, and Aircraft Ground Support

  
 Business Name 
 
 Contact 
 
 Services / Description 
 
Fuel Prices
 
Comments
  
 MacAir Aviation
937-347-1302
[web site]
[email]
Aviation fuel, Aircraft ground handling, Aircraft parking (ramp or tiedown), Hangars, Hangar leasing / sales, Passenger terminal and lounge, ...
 
Certificated Pilot School   PSI FAA Test Center  
 
More info about MacAir Aviation
EPIC
100LL Jet A
AS $3.93 $3.49 
 Updated 21-Sep-2020
 
   6 read write
AS=Assisted/Self Service
Update Fuel Prices
 

Would you like to see your business listed on this page?

 If your business provides an interesting product or service to pilots, flight crews, aircraft, or users of the Greene County-Lewis A Jackson Regional Airport, you should consider listing it here.  To start the listing process, click on the button below
 
Add a business
 

Other Pages about Greene County-Lewis A Jackson Regional Airport

www.i19airport.com
 
Update a link
 
Copyright © AirNav, LLC. All rights reserved. Privacy Policy  Contact